WetterOnline ( https://www.wetteronline.de )

Wetter aktuell Marienberg

Aktuelles Wetter: Marienberg (640m)

6-stündlich | Neueste Meldungen
Ortszeit Temperatur Wetter
So, 29.05. 8:00 6.6° C wolkenlos
So, 29.05. 2:00 5.1° C leicht bewölkt
Sa, 28.05. 20:00 9.4° C wolkig
Sa, 28.05. 14:00 10.0° C bewölkt
Sa, 28.05. 8:00 6.3° C bewölkt
Sa, 28.05. 2:00 6.8° C fast wolkenlos
Fr, 27.05. 20:00 12.6° C fast wolkenlos
Fr, 27.05. 14:00 9.4° C Sprühregen
Ortszeit Temperatur Wetter
So, 29.05. 11:30 9.6° C bewölkt
So, 29.05. 11:20 9.6° C bewölkt
So, 29.05. 11:10 10.2° C wolkig
So, 29.05. 11:00 10.8° C leicht bewölkt
So, 29.05. 10:50 10.8° C leicht bewölkt
So, 29.05. 10:40 10.1° C fast wolkenlos
So, 29.05. 10:30 10.2° C leicht bewölkt
So, 29.05. 10:00 9.2° C leicht bewölkt
So, 29.05. 9:30 8.2° C wolkig
So, 29.05. 9:00 7.1° C bewölkt
So, 29.05. 8:30 6.5° C wolkig
Ortszeit Relative Feuchte Sichtweite
So, 29.05. 8:00 76% 45 km
So, 29.05. 2:00 85% 30 km
Sa, 28.05. 20:00 65% 55 km
Sa, 28.05. 14:00 57% >70 km
Sa, 28.05. 8:00 77% 50 km
Sa, 28.05. 2:00 75% 45 km
Fr, 27.05. 20:00 47% 50 km
Fr, 27.05. 14:00 92% 27 km
Ortszeit Relative Feuchte Sichtweite
So, 29.05. 11:30 53% 55 km
So, 29.05. 11:20 53% -
So, 29.05. 11:10 54% -
So, 29.05. 11:00 60% 45 km
So, 29.05. 10:50 60% -
So, 29.05. 10:40 58% -
So, 29.05. 10:30 60% 40 km
So, 29.05. 10:00 65% 60 km
So, 29.05. 9:30 69% 45 km
So, 29.05. 9:00 73% 45 km
So, 29.05. 8:30 77% 45 km
Ortszeit Niederschlagsmenge Niederschlagsart
So, 29.05. 8:00 0.1 l/m2 in 12 Std. -
So, 29.05. 2:00 0.1 l/m2 in 6 Std. Regen
Sa, 28.05. 20:00 1 l/m2 in 12 Std. Regen
Sa, 28.05. 14:00 1 l/m2 in 6 Std. Regen
Sa, 28.05. 8:00 0.0 l/m2 in 12 Std. -
Sa, 28.05. 2:00 0.0 l/m2 in 6 Std. -
Fr, 27.05. 20:00 6 l/m2 in 12 Std. Regen
Fr, 27.05. 14:00 5 l/m2 in 6 Std. Regen
Ortszeit Niederschlagsmenge Niederschlagsart
So, 29.05. 11:30 0.0 l/m2 in 1 Std. -
So, 29.05. 11:20 keine Meldung -
So, 29.05. 11:10 keine Meldung -
So, 29.05. 11:00 0.0 l/m2 in 1 Std. -
So, 29.05. 10:50 keine Meldung -
So, 29.05. 10:40 keine Meldung -
So, 29.05. 10:30 0.0 l/m2 in 1 Std. -
So, 29.05. 10:00 0.0 l/m2 in 1 Std. -
So, 29.05. 9:30 0.0 l/m2 in 1 Std. -
So, 29.05. 9:00 0.0 l/m2 in 1 Std. -
So, 29.05. 8:30 0.0 l/m2 in 1 Std. -
Ortszeit Stärke Spitze Richtung
km/h Bft. km/h Grad Sektor
So, 29.05. 8:00 7 2 14 250° W
So, 29.05. 2:00 4 1 25 270° W
Sa, 28.05. 20:00 13 3 46 290° W
Sa, 28.05. 14:00 22 4 48 280° W
Sa, 28.05. 8:00 14 3 40 280° W
Sa, 28.05. 2:00 11 2 44 270° W
Fr, 27.05. 20:00 17 3 44 300° NW
Fr, 27.05. 14:00 11 2 40 280° W
Ortszeit Stärke Spitze Richtung
km/h Bft. km/h Grad Sektor
So, 29.05. 11:30 7 2 20 240° SW
So, 29.05. 11:20 7 2 - 240° SW
So, 29.05. 11:10 4 1 - 270° W
So, 29.05. 11:00 9 2 20 300° NW
So, 29.05. 10:50 9 2 - 300° NW
So, 29.05. 10:40 9 2 - 320° NW
So, 29.05. 10:30 11 2 22 260° W
So, 29.05. 10:00 7 2 14 250° W
So, 29.05. 9:30 4 1 14 260° W
So, 29.05. 9:00 7 2 18 300° NW
So, 29.05. 8:30 9 2 19 290° W
Ortszeit Untergrenze Bedeckung Gattung
total tief tief mittel hoch
So, 29.05. 8:00 - 0/8 0/8 - - -
So, 29.05. 2:00 1500 m 3/8 3/8 - - -
Sa, 28.05. 20:00 1110 m 6/8 6/8 - - -
Sa, 28.05. 14:00 1110 m 7/8 7/8 - - -
Sa, 28.05. 8:00 510 m 7/8 7/8 - - -
Sa, 28.05. 2:00 1080 m 1/8 1/8 - - -
Fr, 27.05. 20:00 8100 m 2/8 0/8 - - -
Fr, 27.05. 14:00 240 m 8/8 8/8 - - -
Ortszeit Bedeckungsgrad in Achtel und Wolkenuntergrenze
So, 29.05. 11:30 4(960m) 5(1410m) 7(2100m)
So, 29.05. 11:20 4(960m) 5(1410m) 7(2100m)
So, 29.05. 11:10 6
So, 29.05. 11:00 2(870m)
So, 29.05. 10:50 2(870m) 2(2100m)
So, 29.05. 10:40 1
So, 29.05. 10:30 1(720m)
So, 29.05. 10:00 3(630m)
So, 29.05. 9:30 6(510m)
So, 29.05. 9:00 5(450m) 7(660m)
So, 29.05. 8:30 2(450m) 5(600m)
Ortszeit Luftdruck NN (hPa) Tendenz (hPa in 3 Std.)
So, 29.05. 8:00 1014 - 0,7
So, 29.05. 2:00 1016 - 1,1
Sa, 28.05. 20:00 1016 - 0,1
Sa, 28.05. 14:00 1016 + 0,2
Sa, 28.05. 8:00 1017 - 0,2
Sa, 28.05. 2:00 1018 - 0,5
Fr, 27.05. 20:00 1016 0,0
Fr, 27.05. 14:00 1018 + 0,3
Ortszeit Luftdruck NN (hPa) Tendenz (hPa in 3 Std.)
So, 29.05. 11:30 1013 - 0,4
So, 29.05. 11:20 1013 keine Meldung
So, 29.05. 11:10 1013 keine Meldung
So, 29.05. 11:00 1012 - 0,1
So, 29.05. 10:50 1012 keine Meldung
So, 29.05. 10:40 1013 keine Meldung
So, 29.05. 10:30 1013 0,0
So, 29.05. 10:00 1013 - 0,1
So, 29.05. 9:30 1013 - 0,1
So, 29.05. 9:00 1014 - 0,2
So, 29.05. 8:30 1014 - 0,3
Ortszeit Schneehöhe (cm)
So, 29.05. 8:00 0
So, 29.05. 2:00 0
Sa, 28.05. 20:00 0
Sa, 28.05. 14:00 0
Sa, 28.05. 8:00 0
Sa, 28.05. 2:00 0
Fr, 27.05. 20:00 0
Fr, 27.05. 14:00 0
Ortszeit Schneehöhe (cm)
So, 29.05. 11:30 0
So, 29.05. 11:20 0
So, 29.05. 11:10 0
So, 29.05. 11:00 0
So, 29.05. 10:50 0
So, 29.05. 10:40 0
So, 29.05. 10:30 0
So, 29.05. 10:00 0
So, 29.05. 9:30 0
So, 29.05. 9:00 0
So, 29.05. 8:30 0
Link zu dieser Seite / Seite empfehlen

Das Wetter in ...